sensor_id;sensor_type;location;lat;lon;timestamp;P1;durP1;ratioP1;P2;durP2;ratioP2
62574;SDS011;76945;45.630;11.704;2024-03-08T00:02:16;13.07;;;8.23;;
62574;SDS011;76945;45.630;11.704;2024-03-08T00:04:41;12.13;;;7.40;;
62574;SDS011;76945;45.630;11.704;2024-03-08T00:07:07;11.82;;;7.40;;
62574;SDS011;76945;45.630;11.704;2024-03-08T00:09:33;11.18;;;7.63;;
62574;SDS011;76945;45.630;11.704;2024-03-08T00:11:58;13.70;;;7.55;;
62574;SDS011;76945;45.630;11.704;2024-03-08T00:14:24;13.68;;;8.15;;
62574;SDS011;76945;45.630;11.704;2024-03-08T00:16:50;13.13;;;8.10;;
62574;SDS011;76945;45.630;11.704;2024-03-08T00:19:17;12.15;;;7.40;;
62574;SDS011;76945;45.630;11.704;2024-03-08T00:21:43;11.65;;;7.57;;
62574;SDS011;76945;45.630;11.704;2024-03-08T00:24:08;13.10;;;7.78;;
62574;SDS011;76945;45.630;11.704;2024-03-08T00:26:34;14.23;;;8.50;;
62574;SDS011;76945;45.630;11.704;2024-03-08T00:29:00;13.18;;;7.78;;
62574;SDS011;76945;45.630;11.704;2024-03-08T00:31:25;13.00;;;7.65;;
62574;SDS011;76945;45.630;11.704;2024-03-08T00:33:51;13.02;;;6.97;;
62574;SDS011;76945;45.630;11.704;2024-03-08T00:36:17;11.52;;;6.95;;
62574;SDS011;76945;45.630;11.704;2024-03-08T00:38:43;13.27;;;7.18;;
62574;SDS011;76945;45.630;11.704;2024-03-08T00:41:09;15.30;;;6.97;;
62574;SDS011;76945;45.630;11.704;2024-03-08T00:43:34;12.23;;;6.88;;
62574;SDS011;76945;45.630;11.704;2024-03-08T00:46:00;11.85;;;7.50;;
62574;SDS011;76945;45.630;11.704;2024-03-08T00:48:26;12.18;;;7.68;;
62574;SDS011;76945;45.630;11.704;2024-03-08T00:50:52;12.35;;;7.43;;
62574;SDS011;76945;45.630;11.704;2024-03-08T00:53:18;11.73;;;7.15;;
62574;SDS011;76945;45.630;11.704;2024-03-08T00:55:44;12.95;;;8.40;;
62574;SDS011;76945;45.630;11.704;2024-03-08T00:58:11;11.98;;;7.20;;
62574;SDS011;76945;45.630;11.704;2024-03-08T01:00:37;11.98;;;7.88;;
62574;SDS011;76945;45.630;11.704;2024-03-08T01:03:04;12.85;;;6.60;;
62574;SDS011;76945;45.630;11.704;2024-03-08T01:05:30;11.65;;;7.55;;
62574;SDS011;76945;45.630;11.704;2024-03-08T01:07:55;11.38;;;7.72;;
62574;SDS011;76945;45.630;11.704;2024-03-08T01:10:21;13.75;;;7.90;;
62574;SDS011;76945;45.630;11.704;2024-03-08T01:12:48;11.07;;;6.93;;
62574;SDS011;76945;45.630;11.704;2024-03-08T01:15:14;13.13;;;7.88;;
62574;SDS011;76945;45.630;11.704;2024-03-08T01:17:40;11.13;;;6.70;;
62574;SDS011;76945;45.630;11.704;2024-03-08T01:20:06;12.32;;;6.93;;
62574;SDS011;76945;45.630;11.704;2024-03-08T01:22:32;12.30;;;7.72;;
62574;SDS011;76945;45.630;11.704;2024-03-08T01:24:58;12.00;;;7.15;;
62574;SDS011;76945;45.630;11.704;2024-03-08T01:27:24;10.85;;;6.75;;
62574;SDS011;76945;45.630;11.704;2024-03-08T01:29:50;10.00;;;6.35;;
62574;SDS011;76945;45.630;11.704;2024-03-08T01:32:16;10.45;;;6.53;;
62574;SDS011;76945;45.630;11.704;2024-03-08T01:34:42;11.10;;;7.22;;
62574;SDS011;76945;45.630;11.704;2024-03-08T01:37:09;11.63;;;6.75;;
62574;SDS011;76945;45.630;11.704;2024-03-08T01:39:35;10.40;;;6.75;;
62574;SDS011;76945;45.630;11.704;2024-03-08T01:42:00;10.57;;;6.50;;
62574;SDS011;76945;45.630;11.704;2024-03-08T01:44:26;11.80;;;6.78;;
62574;SDS011;76945;45.630;11.704;2024-03-08T01:46:52;11.57;;;7.10;;
62574;SDS011;76945;45.630;11.704;2024-03-08T01:49:19;11.30;;;6.85;;
62574;SDS011;76945;45.630;11.704;2024-03-08T01:51:47;11.27;;;6.95;;
62574;SDS011;76945;45.630;11.704;2024-03-08T01:54:15;9.35;;;6.05;;
62574;SDS011;76945;45.630;11.704;2024-03-08T01:56:43;10.10;;;6.35;;
62574;SDS011;76945;45.630;11.704;2024-03-08T01:59:08;11.15;;;6.53;;
62574;SDS011;76945;45.630;11.704;2024-03-08T02:01:34;9.38;;;5.80;;
62574;SDS011;76945;45.630;11.704;2024-03-08T02:04:00;10.55;;;6.43;;
62574;SDS011;76945;45.630;11.704;2024-03-08T02:06:26;10.02;;;6.40;;
62574;SDS011;76945;45.630;11.704;2024-03-08T02:08:51;8.65;;;5.47;;
62574;SDS011;76945;45.630;11.704;2024-03-08T02:11:18;9.80;;;6.22;;
62574;SDS011;76945;45.630;11.704;2024-03-08T02:13:45;10.23;;;6.28;;
62574;SDS011;76945;45.630;11.704;2024-03-08T02:16:11;10.13;;;6.25;;
62574;SDS011;76945;45.630;11.704;2024-03-08T02:18:37;8.85;;;5.50;;
62574;SDS011;76945;45.630;11.704;2024-03-08T02:21:04;8.98;;;5.93;;
62574;SDS011;76945;45.630;11.704;2024-03-08T02:23:31;10.18;;;5.95;;
62574;SDS011;76945;45.630;11.704;2024-03-08T02:25:58;11.68;;;6.18;;
62574;SDS011;76945;45.630;11.704;2024-03-08T02:28:24;9.95;;;5.68;;
62574;SDS011;76945;45.630;11.704;2024-03-08T02:30:54;9.18;;;5.88;;
62574;SDS011;76945;45.630;11.704;2024-03-08T02:33:20;11.02;;;6.30;;
62574;SDS011;76945;45.630;11.704;2024-03-08T02:35:47;10.90;;;6.80;;
62574;SDS011;76945;45.630;11.704;2024-03-08T02:38:21;9.57;;;5.85;;
62574;SDS011;76945;45.630;11.704;2024-03-08T02:40:51;11.27;;;5.80;;
62574;SDS011;76945;45.630;11.704;2024-03-08T02:43:18;9.90;;;5.68;;
62574;SDS011;76945;45.630;11.704;2024-03-08T02:45:45;9.40;;;5.70;;
62574;SDS011;76945;45.630;11.704;2024-03-08T02:48:12;8.40;;;5.63;;
62574;SDS011;76945;45.630;11.704;2024-03-08T02:50:38;10.35;;;6.15;;
62574;SDS011;76945;45.630;11.704;2024-03-08T02:55:36;8.63;;;5.35;;
62574;SDS011;76945;45.630;11.704;2024-03-08T02:58:06;9.20;;;5.75;;
62574;SDS011;76945;45.630;11.704;2024-03-08T03:00:35;8.30;;;5.05;;
62574;SDS011;76945;45.630;11.704;2024-03-08T03:03:01;9.48;;;5.95;;
62574;SDS011;76945;45.630;11.704;2024-03-08T03:05:28;9.82;;;5.72;;
62574;SDS011;76945;45.630;11.704;2024-03-08T03:07:57;8.98;;;5.72;;
62574;SDS011;76945;45.630;11.704;2024-03-08T03:10:23;8.95;;;5.63;;
62574;SDS011;76945;45.630;11.704;2024-03-08T03:12:49;11.93;;;6.10;;
62574;SDS011;76945;45.630;11.704;2024-03-08T03:15:15;12.00;;;6.10;;
62574;SDS011;76945;45.630;11.704;2024-03-08T03:17:47;10.35;;;5.90;;
62574;SDS011;76945;45.630;11.704;2024-03-08T03:20:15;10.15;;;5.68;;
62574;SDS011;76945;45.630;11.704;2024-03-08T03:22:48;8.25;;;5.30;;
62574;SDS011;76945;45.630;11.704;2024-03-08T03:25:17;9.52;;;5.78;;
62574;SDS011;76945;45.630;11.704;2024-03-08T03:27:48;11.35;;;6.00;;
62574;SDS011;76945;45.630;11.704;2024-03-08T03:30:14;9.88;;;5.90;;
62574;SDS011;76945;45.630;11.704;2024-03-08T03:32:49;9.82;;;5.88;;
62574;SDS011;76945;45.630;11.704;2024-03-08T03:35:16;9.88;;;5.78;;
62574;SDS011;76945;45.630;11.704;2024-03-08T03:37:42;9.02;;;5.70;;
62574;SDS011;76945;45.630;11.704;2024-03-08T03:40:10;8.32;;;5.70;;
62574;SDS011;76945;45.630;11.704;2024-03-08T03:42:37;10.63;;;6.18;;
62574;SDS011;76945;45.630;11.704;2024-03-08T03:45:04;8.35;;;5.70;;
62574;SDS011;76945;45.630;11.704;2024-03-08T03:47:30;9.25;;;5.80;;
62574;SDS011;76945;45.630;11.704;2024-03-08T03:49:56;9.27;;;6.13;;
62574;SDS011;76945;45.630;11.704;2024-03-08T03:52:26;9.13;;;5.80;;
62574;SDS011;76945;45.630;11.704;2024-03-08T03:54:52;10.40;;;6.40;;
62574;SDS011;76945;45.630;11.704;2024-03-08T03:57:18;9.50;;;5.95;;
62574;SDS011;76945;45.630;11.704;2024-03-08T03:59:45;9.43;;;5.70;;
62574;SDS011;76945;45.630;11.704;2024-03-08T04:02:12;10.13;;;5.95;;
62574;SDS011;76945;45.630;11.704;2024-03-08T04:04:38;9.23;;;5.93;;
62574;SDS011;76945;45.630;11.704;2024-03-08T04:07:03;9.35;;;5.60;;
62574;SDS011;76945;45.630;11.704;2024-03-08T04:09:30;10.00;;;5.70;;
62574;SDS011;76945;45.630;11.704;2024-03-08T04:11:55;9.80;;;6.25;;
62574;SDS011;76945;45.630;11.704;2024-03-08T04:14:21;8.18;;;5.15;;
62574;SDS011;76945;45.630;11.704;2024-03-08T04:16:48;8.73;;;5.47;;
62574;SDS011;76945;45.630;11.704;2024-03-08T04:19:13;8.52;;;5.40;;
62574;SDS011;76945;45.630;11.704;2024-03-08T04:21:39;7.78;;;5.05;;
62574;SDS011;76945;45.630;11.704;2024-03-08T04:24:05;7.70;;;4.43;;
62574;SDS011;76945;45.630;11.704;2024-03-08T04:26:31;7.55;;;4.30;;
62574;SDS011;76945;45.630;11.704;2024-03-08T04:28:56;6.57;;;3.90;;
62574;SDS011;76945;45.630;11.704;2024-03-08T04:31:22;6.50;;;4.07;;
62574;SDS011;76945;45.630;11.704;2024-03-08T04:33:48;7.10;;;4.30;;
62574;SDS011;76945;45.630;11.704;2024-03-08T04:36:13;6.30;;;3.95;;
62574;SDS011;76945;45.630;11.704;2024-03-08T04:38:39;7.38;;;4.25;;
62574;SDS011;76945;45.630;11.704;2024-03-08T04:41:06;6.40;;;4.00;;
62574;SDS011;76945;45.630;11.704;2024-03-08T04:43:32;6.75;;;4.50;;
62574;SDS011;76945;45.630;11.704;2024-03-08T04:45:58;6.30;;;3.88;;
62574;SDS011;76945;45.630;11.704;2024-03-08T04:48:24;5.82;;;3.58;;
62574;SDS011;76945;45.630;11.704;2024-03-08T04:50:51;6.57;;;3.83;;
62574;SDS011;76945;45.630;11.704;2024-03-08T04:53:18;6.05;;;3.95;;
62574;SDS011;76945;45.630;11.704;2024-03-08T04:55:44;6.30;;;4.10;;
62574;SDS011;76945;45.630;11.704;2024-03-08T04:58:10;5.75;;;3.75;;
62574;SDS011;76945;45.630;11.704;2024-03-08T05:00:35;8.20;;;4.13;;
62574;SDS011;76945;45.630;11.704;2024-03-08T05:03:01;6.03;;;4.13;;
62574;SDS011;76945;45.630;11.704;2024-03-08T05:05:27;6.30;;;4.00;;
62574;SDS011;76945;45.630;11.704;2024-03-08T05:07:53;5.82;;;3.58;;
62574;SDS011;76945;45.630;11.704;2024-03-08T05:10:19;6.50;;;4.00;;
62574;SDS011;76945;45.630;11.704;2024-03-08T05:12:45;6.03;;;4.15;;
62574;SDS011;76945;45.630;11.704;2024-03-08T05:15:11;6.30;;;4.18;;
62574;SDS011;76945;45.630;11.704;2024-03-08T05:17:36;7.97;;;4.57;;
62574;SDS011;76945;45.630;11.704;2024-03-08T05:20:02;6.25;;;4.03;;
62574;SDS011;76945;45.630;11.704;2024-03-08T05:22:29;7.50;;;4.85;;
62574;SDS011;76945;45.630;11.704;2024-03-08T05:24:54;6.82;;;4.55;;
62574;SDS011;76945;45.630;11.704;2024-03-08T05:27:20;7.03;;;4.65;;
62574;SDS011;76945;45.630;11.704;2024-03-08T05:29:46;7.97;;;4.95;;
62574;SDS011;76945;45.630;11.704;2024-03-08T05:32:11;7.55;;;4.95;;
62574;SDS011;76945;45.630;11.704;2024-03-08T05:34:37;8.90;;;5.38;;
62574;SDS011;76945;45.630;11.704;2024-03-08T05:37:03;11.50;;;6.82;;
62574;SDS011;76945;45.630;11.704;2024-03-08T05:39:29;11.27;;;6.53;;
62574;SDS011;76945;45.630;11.704;2024-03-08T05:41:55;10.65;;;6.55;;
62574;SDS011;76945;45.630;11.704;2024-03-08T05:44:21;10.35;;;7.53;;
62574;SDS011;76945;45.630;11.704;2024-03-08T05:46:47;10.70;;;6.95;;
62574;SDS011;76945;45.630;11.704;2024-03-08T05:49:13;11.05;;;6.72;;
62574;SDS011;76945;45.630;11.704;2024-03-08T05:51:40;12.40;;;7.45;;
62574;SDS011;76945;45.630;11.704;2024-03-08T05:54:09;10.07;;;6.75;;
62574;SDS011;76945;45.630;11.704;2024-03-08T05:56:36;11.77;;;6.47;;
62574;SDS011;76945;45.630;11.704;2024-03-08T05:59:02;11.18;;;6.88;;
62574;SDS011;76945;45.630;11.704;2024-03-08T06:01:28;9.85;;;6.30;;
62574;SDS011;76945;45.630;11.704;2024-03-08T06:03:54;11.07;;;6.50;;
62574;SDS011;76945;45.630;11.704;2024-03-08T06:06:25;10.88;;;6.85;;
62574;SDS011;76945;45.630;11.704;2024-03-08T06:11:47;9.10;;;6.15;;
62574;SDS011;76945;45.630;11.704;2024-03-08T06:14:13;9.85;;;6.68;;
62574;SDS011;76945;45.630;11.704;2024-03-08T06:16:43;9.95;;;7.10;;
62574;SDS011;76945;45.630;11.704;2024-03-08T06:19:09;10.32;;;7.03;;
62574;SDS011;76945;45.630;11.704;2024-03-08T06:21:35;10.80;;;6.57;;
62574;SDS011;76945;45.630;11.704;2024-03-08T06:24:01;11.13;;;6.47;;
62574;SDS011;76945;45.630;11.704;2024-03-08T06:26:27;10.48;;;6.40;;
62574;SDS011;76945;45.630;11.704;2024-03-08T06:28:56;11.15;;;6.63;;
62574;SDS011;76945;45.630;11.704;2024-03-08T06:31:22;10.85;;;6.22;;
62574;SDS011;76945;45.630;11.704;2024-03-08T06:33:48;9.38;;;6.30;;
62574;SDS011;76945;45.630;11.704;2024-03-08T06:36:17;9.68;;;6.50;;
62574;SDS011;76945;45.630;11.704;2024-03-08T06:38:45;10.15;;;7.07;;
62574;SDS011;76945;45.630;11.704;2024-03-08T06:41:11;9.93;;;6.25;;
62574;SDS011;76945;45.630;11.704;2024-03-08T06:43:41;12.50;;;7.20;;
62574;SDS011;76945;45.630;11.704;2024-03-08T06:46:10;9.75;;;6.20;;
62574;SDS011;76945;45.630;11.704;2024-03-08T06:48:39;11.75;;;6.57;;
62574;SDS011;76945;45.630;11.704;2024-03-08T06:51:05;10.35;;;6.95;;
62574;SDS011;76945;45.630;11.704;2024-03-08T06:53:31;11.52;;;6.68;;
62574;SDS011;76945;45.630;11.704;2024-03-08T06:55:57;10.68;;;6.68;;
62574;SDS011;76945;45.630;11.704;2024-03-08T06:58:23;10.63;;;6.90;;
62574;SDS011;76945;45.630;11.704;2024-03-08T07:00:49;11.15;;;7.10;;
62574;SDS011;76945;45.630;11.704;2024-03-08T07:03:17;11.73;;;7.03;;
62574;SDS011;76945;45.630;11.704;2024-03-08T07:05:43;9.98;;;6.65;;
62574;SDS011;76945;45.630;11.704;2024-03-08T07:08:09;11.63;;;7.30;;
62574;SDS011;76945;45.630;11.704;2024-03-08T07:10:35;12.15;;;7.13;;
62574;SDS011;76945;45.630;11.704;2024-03-08T07:13:02;10.60;;;6.95;;
62574;SDS011;76945;45.630;11.704;2024-03-08T07:15:28;10.63;;;6.85;;
62574;SDS011;76945;45.630;11.704;2024-03-08T07:17:54;11.05;;;7.50;;
62574;SDS011;76945;45.630;11.704;2024-03-08T07:20:20;11.68;;;7.45;;
62574;SDS011;76945;45.630;11.704;2024-03-08T07:22:46;13.50;;;8.00;;
62574;SDS011;76945;45.630;11.704;2024-03-08T07:25:12;11.15;;;7.20;;
62574;SDS011;76945;45.630;11.704;2024-03-08T07:27:45;11.90;;;7.85;;
62574;SDS011;76945;45.630;11.704;2024-03-08T07:30:14;14.15;;;8.02;;
62574;SDS011;76945;45.630;11.704;2024-03-08T07:32:59;12.32;;;7.80;;
62574;SDS011;76945;45.630;11.704;2024-03-08T07:35:27;12.00;;;7.97;;
62574;SDS011;76945;45.630;11.704;2024-03-08T07:37:53;12.15;;;7.57;;
62574;SDS011;76945;45.630;11.704;2024-03-08T07:40:24;11.15;;;7.18;;
62574;SDS011;76945;45.630;11.704;2024-03-08T07:42:50;11.80;;;7.25;;
62574;SDS011;76945;45.630;11.704;2024-03-08T07:45:16;10.25;;;6.45;;
62574;SDS011;76945;45.630;11.704;2024-03-08T07:47:42;10.05;;;6.68;;
62574;SDS011;76945;45.630;11.704;2024-03-08T07:50:08;10.10;;;6.68;;
62574;SDS011;76945;45.630;11.704;2024-03-08T07:52:34;11.57;;;7.03;;
62574;SDS011;76945;45.630;11.704;2024-03-08T07:55:01;10.20;;;7.00;;
62574;SDS011;76945;45.630;11.704;2024-03-08T07:57:28;10.43;;;6.68;;
62574;SDS011;76945;45.630;11.704;2024-03-08T07:59:54;10.52;;;7.07;;
62574;SDS011;76945;45.630;11.704;2024-03-08T08:02:20;11.35;;;6.80;;
62574;SDS011;76945;45.630;11.704;2024-03-08T08:04:46;10.85;;;7.45;;
62574;SDS011;76945;45.630;11.704;2024-03-08T08:07:12;11.23;;;7.40;;
62574;SDS011;76945;45.630;11.704;2024-03-08T08:09:37;10.85;;;6.85;;
62574;SDS011;76945;45.630;11.704;2024-03-08T08:12:03;10.70;;;6.85;;
62574;SDS011;76945;45.630;11.704;2024-03-08T08:14:29;10.60;;;6.60;;
62574;SDS011;76945;45.630;11.704;2024-03-08T08:16:56;13.32;;;7.30;;
62574;SDS011;76945;45.630;11.704;2024-03-08T08:19:22;10.77;;;6.93;;
62574;SDS011;76945;45.630;11.704;2024-03-08T08:21:48;10.80;;;6.65;;
62574;SDS011;76945;45.630;11.704;2024-03-08T08:24:14;13.00;;;9.00;;
62574;SDS011;76945;45.630;11.704;2024-03-08T08:26:40;10.93;;;7.20;;
62574;SDS011;76945;45.630;11.704;2024-03-08T08:29:06;9.73;;;5.90;;
62574;SDS011;76945;45.630;11.704;2024-03-08T08:31:32;10.35;;;6.57;;
62574;SDS011;76945;45.630;11.704;2024-03-08T08:33:58;10.20;;;6.60;;
62574;SDS011;76945;45.630;11.704;2024-03-08T08:36:24;9.43;;;6.32;;
62574;SDS011;76945;45.630;11.704;2024-03-08T08:38:50;9.57;;;6.32;;
62574;SDS011;76945;45.630;11.704;2024-03-08T08:41:19;9.57;;;6.55;;
62574;SDS011;76945;45.630;11.704;2024-03-08T08:43:46;10.27;;;6.53;;
62574;SDS011;76945;45.630;11.704;2024-03-08T08:46:12;10.73;;;6.80;;
62574;SDS011;76945;45.630;11.704;2024-03-08T08:48:40;11.00;;;6.88;;
62574;SDS011;76945;45.630;11.704;2024-03-08T08:51:06;11.27;;;7.15;;
62574;SDS011;76945;45.630;11.704;2024-03-08T08:53:37;11.68;;;7.95;;
62574;SDS011;76945;45.630;11.704;2024-03-08T08:56:05;11.60;;;7.40;;
62574;SDS011;76945;45.630;11.704;2024-03-08T08:58:33;10.30;;;7.10;;
62574;SDS011;76945;45.630;11.704;2024-03-08T09:00:58;10.05;;;7.00;;
62574;SDS011;76945;45.630;11.704;2024-03-08T09:03:24;11.20;;;7.07;;
62574;SDS011;76945;45.630;11.704;2024-03-08T09:05:52;9.70;;;6.05;;
62574;SDS011;76945;45.630;11.704;2024-03-08T09:08:18;10.18;;;7.05;;
62574;SDS011;76945;45.630;11.704;2024-03-08T09:10:44;11.10;;;7.20;;
62574;SDS011;76945;45.630;11.704;2024-03-08T09:13:09;9.40;;;6.70;;
62574;SDS011;76945;45.630;11.704;2024-03-08T09:15:36;11.98;;;7.38;;
62574;SDS011;76945;45.630;11.704;2024-03-08T09:18:05;11.15;;;6.65;;
62574;SDS011;76945;45.630;11.704;2024-03-08T09:20:31;10.93;;;6.93;;
62574;SDS011;76945;45.630;11.704;2024-03-08T09:22:57;10.70;;;7.07;;
62574;SDS011;76945;45.630;11.704;2024-03-08T09:25:23;11.70;;;6.97;;
62574;SDS011;76945;45.630;11.704;2024-03-08T09:27:48;10.57;;;7.05;;
62574;SDS011;76945;45.630;11.704;2024-03-08T09:30:14;10.13;;;6.80;;
62574;SDS011;76945;45.630;11.704;2024-03-08T09:32:40;11.20;;;7.20;;
62574;SDS011;76945;45.630;11.704;2024-03-08T09:35:08;10.65;;;7.10;;
62574;SDS011;76945;45.630;11.704;2024-03-08T09:37:36;10.93;;;7.07;;
62574;SDS011;76945;45.630;11.704;2024-03-08T09:40:02;11.77;;;7.93;;
62574;SDS011;76945;45.630;11.704;2024-03-08T09:42:37;12.23;;;7.57;;
62574;SDS011;76945;45.630;11.704;2024-03-08T09:45:09;11.85;;;6.93;;
62574;SDS011;76945;45.630;11.704;2024-03-08T09:47:36;11.00;;;7.47;;
62574;SDS011;76945;45.630;11.704;2024-03-08T09:50:07;12.25;;;7.35;;
62574;SDS011;76945;45.630;11.704;2024-03-08T09:52:37;11.25;;;7.30;;
62574;SDS011;76945;45.630;11.704;2024-03-08T09:55:06;11.45;;;8.23;;
62574;SDS011;76945;45.630;11.704;2024-03-08T09:57:32;14.63;;;8.85;;
62574;SDS011;76945;45.630;11.704;2024-03-08T09:59:58;12.02;;;7.97;;
62574;SDS011;76945;45.630;11.704;2024-03-08T10:02:24;13.75;;;9.00;;
62574;SDS011;76945;45.630;11.704;2024-03-08T10:04:51;12.85;;;8.25;;
62574;SDS011;76945;45.630;11.704;2024-03-08T10:07:18;12.77;;;8.25;;
62574;SDS011;76945;45.630;11.704;2024-03-08T10:09:44;12.15;;;7.72;;
62574;SDS011;76945;45.630;11.704;2024-03-08T10:12:16;12.90;;;8.30;;
62574;SDS011;76945;45.630;11.704;2024-03-08T10:14:42;11.15;;;7.88;;
62574;SDS011;76945;45.630;11.704;2024-03-08T10:17:08;11.27;;;8.35;;
62574;SDS011;76945;45.630;11.704;2024-03-08T10:19:34;13.45;;;8.93;;
62574;SDS011;76945;45.630;11.704;2024-03-08T10:22:00;12.60;;;8.20;;
62574;SDS011;76945;45.630;11.704;2024-03-08T10:24:25;14.80;;;8.65;;
62574;SDS011;76945;45.630;11.704;2024-03-08T10:26:52;12.63;;;8.65;;
62574;SDS011;76945;45.630;11.704;2024-03-08T10:29:18;12.23;;;8.30;;
62574;SDS011;76945;45.630;11.704;2024-03-08T10:31:44;15.38;;;9.63;;
62574;SDS011;76945;45.630;11.704;2024-03-08T10:34:10;26.92;;;17.55;;
62574;SDS011;76945;45.630;11.704;2024-03-08T10:36:36;20.75;;;16.25;;
62574;SDS011;76945;45.630;11.704;2024-03-08T10:39:04;21.65;;;14.15;;
62574;SDS011;76945;45.630;11.704;2024-03-08T10:41:58;16.13;;;11.00;;
62574;SDS011;76945;45.630;11.704;2024-03-08T10:47:12;15.98;;;9.60;;
62574;SDS011;76945;45.630;11.704;2024-03-08T10:52:29;14.57;;;9.85;;
62574;SDS011;76945;45.630;11.704;2024-03-08T10:54:54;13.68;;;8.98;;
62574;SDS011;76945;45.630;11.704;2024-03-08T10:57:22;16.17;;;10.70;;
62574;SDS011;76945;45.630;11.704;2024-03-08T10:59:49;13.90;;;9.40;;
62574;SDS011;76945;45.630;11.704;2024-03-08T11:02:16;13.70;;;9.50;;
62574;SDS011;76945;45.630;11.704;2024-03-08T11:04:50;14.07;;;9.15;;
62574;SDS011;76945;45.630;11.704;2024-03-08T11:07:16;14.07;;;9.07;;
62574;SDS011;76945;45.630;11.704;2024-03-08T11:09:43;13.63;;;9.38;;
62574;SDS011;76945;45.630;11.704;2024-03-08T11:12:24;15.73;;;9.90;;
62574;SDS011;76945;45.630;11.704;2024-03-08T11:14:50;15.38;;;9.63;;
62574;SDS011;76945;45.630;11.704;2024-03-08T11:17:21;13.88;;;9.10;;
62574;SDS011;76945;45.630;11.704;2024-03-08T11:19:52;15.02;;;9.02;;
62574;SDS011;76945;45.630;11.704;2024-03-08T11:22:27;15.35;;;9.43;;
62574;SDS011;76945;45.630;11.704;2024-03-08T11:25:02;24.00;;;13.73;;
62574;SDS011;76945;45.630;11.704;2024-03-08T11:27:33;13.65;;;8.48;;
62574;SDS011;76945;45.630;11.704;2024-03-08T11:30:00;14.65;;;9.70;;
62574;SDS011;76945;45.630;11.704;2024-03-08T11:32:37;15.55;;;10.38;;
62574;SDS011;76945;45.630;11.704;2024-03-08T11:35:07;15.57;;;10.48;;
62574;SDS011;76945;45.630;11.704;2024-03-08T11:37:43;16.75;;;11.07;;
62574;SDS011;76945;45.630;11.704;2024-03-08T11:40:12;15.82;;;10.18;;
62574;SDS011;76945;45.630;11.704;2024-03-08T11:42:47;18.23;;;11.05;;
62574;SDS011;76945;45.630;11.704;2024-03-08T11:45:14;17.35;;;11.43;;
62574;SDS011;76945;45.630;11.704;2024-03-08T11:47:42;19.13;;;13.55;;
62574;SDS011;76945;45.630;11.704;2024-03-08T11:50:10;18.17;;;11.80;;
62574;SDS011;76945;45.630;11.704;2024-03-08T11:52:37;17.30;;;10.98;;
62574;SDS011;76945;45.630;11.704;2024-03-08T11:55:03;19.00;;;12.68;;
62574;SDS011;76945;45.630;11.704;2024-03-08T11:57:30;18.63;;;12.50;;
62574;SDS011;76945;45.630;11.704;2024-03-08T11:59:56;17.65;;;12.15;;
62574;SDS011;76945;45.630;11.704;2024-03-08T12:02:23;20.05;;;13.10;;
62574;SDS011;76945;45.630;11.704;2024-03-08T12:04:56;17.02;;;10.98;;
62574;SDS011;76945;45.630;11.704;2024-03-08T12:07:25;16.23;;;10.52;;
62574;SDS011;76945;45.630;11.704;2024-03-08T12:12:47;15.68;;;10.43;;
62574;SDS011;76945;45.630;11.704;2024-03-08T12:15:24;17.58;;;11.88;;
62574;SDS011;76945;45.630;11.704;2024-03-08T12:17:51;18.33;;;11.30;;
62574;SDS011;76945;45.630;11.704;2024-03-08T12:20:27;17.58;;;11.52;;
62574;SDS011;76945;45.630;11.704;2024-03-08T12:22:57;17.60;;;11.27;;
62574;SDS011;76945;45.630;11.704;2024-03-08T12:25:41;19.98;;;11.50;;
62574;SDS011;76945;45.630;11.704;2024-03-08T12:28:10;17.95;;;11.25;;
62574;SDS011;76945;45.630;11.704;2024-03-08T12:30:50;17.30;;;11.07;;
62574;SDS011;76945;45.630;11.704;2024-03-08T12:33:19;15.30;;;9.60;;
62574;SDS011;76945;45.630;11.704;2024-03-08T12:35:54;19.40;;;12.27;;
62574;SDS011;76945;45.630;11.704;2024-03-08T12:38:21;17.40;;;11.45;;
62574;SDS011;76945;45.630;11.704;2024-03-08T12:40:50;17.52;;;10.77;;
62574;SDS011;76945;45.630;11.704;2024-03-08T12:43:19;17.23;;;11.55;;
62574;SDS011;76945;45.630;11.704;2024-03-08T12:45:45;16.13;;;10.30;;
62574;SDS011;76945;45.630;11.704;2024-03-08T12:48:14;16.50;;;10.43;;
62574;SDS011;76945;45.630;11.704;2024-03-08T12:50:40;16.77;;;10.60;;
62574;SDS011;76945;45.630;11.704;2024-03-08T12:53:09;15.52;;;10.50;;
62574;SDS011;76945;45.630;11.704;2024-03-08T12:55:34;15.68;;;10.88;;
62574;SDS011;76945;45.630;11.704;2024-03-08T12:58:00;17.58;;;11.38;;
62574;SDS011;76945;45.630;11.704;2024-03-08T13:00:26;16.10;;;10.57;;
62574;SDS011;76945;45.630;11.704;2024-03-08T13:02:53;19.48;;;11.82;;
62574;SDS011;76945;45.630;11.704;2024-03-08T13:05:19;16.08;;;10.80;;
62574;SDS011;76945;45.630;11.704;2024-03-08T13:07:45;19.45;;;11.77;;
62574;SDS011;76945;45.630;11.704;2024-03-08T13:10:14;18.88;;;11.40;;
62574;SDS011;76945;45.630;11.704;2024-03-08T13:12:44;21.77;;;13.20;;
62574;SDS011;76945;45.630;11.704;2024-03-08T13:15:10;17.08;;;11.25;;
62574;SDS011;76945;45.630;11.704;2024-03-08T13:17:40;21.10;;;11.02;;
62574;SDS011;76945;45.630;11.704;2024-03-08T13:20:07;19.33;;;11.25;;
62574;SDS011;76945;45.630;11.704;2024-03-08T13:22:33;18.63;;;12.18;;
62574;SDS011;76945;45.630;11.704;2024-03-08T13:24:59;25.92;;;15.57;;
62574;SDS011;76945;45.630;11.704;2024-03-08T13:27:26;21.55;;;12.00;;
62574;SDS011;76945;45.630;11.704;2024-03-08T13:29:53;22.50;;;13.40;;
62574;SDS011;76945;45.630;11.704;2024-03-08T13:32:18;17.42;;;11.07;;
62574;SDS011;76945;45.630;11.704;2024-03-08T13:34:45;15.65;;;10.63;;
62574;SDS011;76945;45.630;11.704;2024-03-08T13:37:12;18.25;;;11.38;;
62574;SDS011;76945;45.630;11.704;2024-03-08T13:39:41;15.13;;;10.45;;
62574;SDS011;76945;45.630;11.704;2024-03-08T13:42:11;15.85;;;9.85;;
62574;SDS011;76945;45.630;11.704;2024-03-08T13:44:47;15.43;;;10.70;;
62574;SDS011;76945;45.630;11.704;2024-03-08T13:47:16;15.75;;;10.45;;
62574;SDS011;76945;45.630;11.704;2024-03-08T13:49:45;15.88;;;10.68;;
62574;SDS011;76945;45.630;11.704;2024-03-08T13:52:11;16.20;;;10.05;;
62574;SDS011;76945;45.630;11.704;2024-03-08T13:54:40;18.30;;;11.65;;
62574;SDS011;76945;45.630;11.704;2024-03-08T13:57:06;18.15;;;11.43;;
62574;SDS011;76945;45.630;11.704;2024-03-08T13:59:32;18.42;;;10.65;;
62574;SDS011;76945;45.630;11.704;2024-03-08T14:01:59;19.95;;;12.10;;
62574;SDS011;76945;45.630;11.704;2024-03-08T14:04:27;17.13;;;11.20;;
62574;SDS011;76945;45.630;11.704;2024-03-08T14:06:55;16.25;;;10.00;;
62574;SDS011;76945;45.630;11.704;2024-03-08T14:09:29;20.10;;;11.50;;
62574;SDS011;76945;45.630;11.704;2024-03-08T14:11:56;16.38;;;10.75;;
62574;SDS011;76945;45.630;11.704;2024-03-08T14:14:21;18.17;;;11.68;;
62574;SDS011;76945;45.630;11.704;2024-03-08T14:16:50;18.00;;;11.63;;
62574;SDS011;76945;45.630;11.704;2024-03-08T14:19:22;18.25;;;10.50;;
62574;SDS011;76945;45.630;11.704;2024-03-08T14:21:48;15.77;;;10.52;;
62574;SDS011;76945;45.630;11.704;2024-03-08T14:24:14;16.10;;;9.95;;
62574;SDS011;76945;45.630;11.704;2024-03-08T14:26:41;15.65;;;9.75;;
62574;SDS011;76945;45.630;11.704;2024-03-08T14:29:07;15.98;;;9.85;;
62574;SDS011;76945;45.630;11.704;2024-03-08T14:31:35;16.02;;;10.40;;
62574;SDS011;76945;45.630;11.704;2024-03-08T14:34:01;17.98;;;11.20;;
62574;SDS011;76945;45.630;11.704;2024-03-08T14:36:28;19.42;;;11.40;;